sensor_id;sensor_type;location;lat;lon;timestamp;temperature;humidity
74178;DHT22;62540;48.456;-4.456;2023-04-23T00:00:47;14.83;76.66
74178;DHT22;62540;48.456;-4.456;2023-04-23T00:03:13;14.84;76.87
74178;DHT22;62540;48.456;-4.456;2023-04-23T00:05:39;14.81;76.99
74178;DHT22;62540;48.456;-4.456;2023-04-23T00:08:07;14.81;76.92
74178;DHT22;62540;48.456;-4.456;2023-04-23T00:10:32;14.80;77.02
74178;DHT22;62540;48.456;-4.456;2023-04-23T00:12:58;14.83;76.74
74178;DHT22;62540;48.456;-4.456;2023-04-23T00:15:24;14.87;76.50
74178;DHT22;62540;48.456;-4.456;2023-04-23T00:17:49;14.84;76.71
74178;DHT22;62540;48.456;-4.456;2023-04-23T00:20:15;14.83;76.80
74178;DHT22;62540;48.456;-4.456;2023-04-23T00:22:42;14.83;76.78
74178;DHT22;62540;48.456;-4.456;2023-04-23T00:25:08;14.81;76.68
74178;DHT22;62540;48.456;-4.456;2023-04-23T00:27:34;14.80;76.82
74178;DHT22;62540;48.456;-4.456;2023-04-23T00:30:00;14.81;76.76
74178;DHT22;62540;48.456;-4.456;2023-04-23T00:32:25;14.87;76.43
74178;DHT22;62540;48.456;-4.456;2023-04-23T00:34:51;14.88;75.83
74178;DHT22;62540;48.456;-4.456;2023-04-23T00:37:16;14.84;75.90
74178;DHT22;62540;48.456;-4.456;2023-04-23T00:39:42;14.80;76.30
74178;DHT22;62540;48.456;-4.456;2023-04-23T00:42:09;14.75;76.98
74178;DHT22;62540;48.456;-4.456;2023-04-23T00:44:38;14.75;77.26
74178;DHT22;62540;48.456;-4.456;2023-04-23T00:47:05;14.77;77.28
74178;DHT22;62540;48.456;-4.456;2023-04-23T00:49:32;14.83;77.04
74178;DHT22;62540;48.456;-4.456;2023-04-23T00:51:57;14.84;77.05
74178;DHT22;62540;48.456;-4.456;2023-04-23T00:54:24;14.85;76.68
74178;DHT22;62540;48.456;-4.456;2023-04-23T00:56:50;14.88;76.91
74178;DHT22;62540;48.456;-4.456;2023-04-23T00:59:17;14.87;77.12
74178;DHT22;62540;48.456;-4.456;2023-04-23T01:01:42;14.81;77.29
74178;DHT22;62540;48.456;-4.456;2023-04-23T01:04:11;14.83;76.98
74178;DHT22;62540;48.456;-4.456;2023-04-23T01:06:39;14.80;77.45
74178;DHT22;62540;48.456;-4.456;2023-04-23T01:09:04;14.83;77.45
74178;DHT22;62540;48.456;-4.456;2023-04-23T01:11:31;14.78;77.59
74178;DHT22;62540;48.456;-4.456;2023-04-23T01:13:57;14.77;77.78
74178;DHT22;62540;48.456;-4.456;2023-04-23T01:16:23;14.70;76.93
74178;DHT22;62540;48.456;-4.456;2023-04-23T01:18:48;14.61;75.83
74178;DHT22;62540;48.456;-4.456;2023-04-23T01:21:16;14.54;74.36
74178;DHT22;62540;48.456;-4.456;2023-04-23T01:23:42;14.44;74.15
74178;DHT22;62540;48.456;-4.456;2023-04-23T01:26:07;14.32;74.35
74178;DHT22;62540;48.456;-4.456;2023-04-23T01:28:35;14.30;74.59
74178;DHT22;62540;48.456;-4.456;2023-04-23T01:31:01;14.23;74.80
74178;DHT22;62540;48.456;-4.456;2023-04-23T01:33:26;14.18;74.99
74178;DHT22;62540;48.456;-4.456;2023-04-23T01:35:53;14.16;75.08
74178;DHT22;62540;48.456;-4.456;2023-04-23T01:38:21;14.13;75.09
74178;DHT22;62540;48.456;-4.456;2023-04-23T01:40:46;14.09;75.19
74178;DHT22;62540;48.456;-4.456;2023-04-23T01:43:12;14.06;75.30
74178;DHT22;62540;48.456;-4.456;2023-04-23T01:45:38;14.01;75.32
74178;DHT22;62540;48.456;-4.456;2023-04-23T01:48:03;13.98;75.56
74178;DHT22;62540;48.456;-4.456;2023-04-23T01:50:29;13.99;75.77
74178;DHT22;62540;48.456;-4.456;2023-04-23T01:52:54;13.97;76.02
74178;DHT22;62540;48.456;-4.456;2023-04-23T01:55:20;13.94;76.10
74178;DHT22;62540;48.456;-4.456;2023-04-23T01:57:46;13.94;76.34
74178;DHT22;62540;48.456;-4.456;2023-04-23T02:00:12;13.92;76.37
74178;DHT22;62540;48.456;-4.456;2023-04-23T02:02:40;13.94;76.29
74178;DHT22;62540;48.456;-4.456;2023-04-23T02:05:12;13.95;76.13
74178;DHT22;62540;48.456;-4.456;2023-04-23T02:07:39;14.01;76.02
74178;DHT22;62540;48.456;-4.456;2023-04-23T02:10:05;14.02;76.05
74178;DHT22;62540;48.456;-4.456;2023-04-23T02:12:30;14.02;76.24
74178;DHT22;62540;48.456;-4.456;2023-04-23T02:14:56;14.01;76.27
74178;DHT22;62540;48.456;-4.456;2023-04-23T02:17:21;14.01;76.60
74178;DHT22;62540;48.456;-4.456;2023-04-23T02:19:50;13.97;76.98
74178;DHT22;62540;48.456;-4.456;2023-04-23T02:22:16;13.92;76.85
74178;DHT22;62540;48.456;-4.456;2023-04-23T02:24:42;13.90;76.89
74178;DHT22;62540;48.456;-4.456;2023-04-23T02:27:08;13.89;77.11
74178;DHT22;62540;48.456;-4.456;2023-04-23T02:29:35;13.83;77.04
74178;DHT22;62540;48.456;-4.456;2023-04-23T02:32:01;13.81;77.02
74178;DHT22;62540;48.456;-4.456;2023-04-23T02:34:27;13.77;76.80
74178;DHT22;62540;48.456;-4.456;2023-04-23T02:36:52;13.79;76.67
74178;DHT22;62540;48.456;-4.456;2023-04-23T02:39:18;13.81;76.71
74178;DHT22;62540;48.456;-4.456;2023-04-23T02:41:43;13.83;76.77
74178;DHT22;62540;48.456;-4.456;2023-04-23T02:44:08;13.90;76.49
74178;DHT22;62540;48.456;-4.456;2023-04-23T02:46:34;13.92;76.28
74178;DHT22;62540;48.456;-4.456;2023-04-23T02:49:01;13.95;76.13
74178;DHT22;62540;48.456;-4.456;2023-04-23T02:51:27;13.92;76.12
74178;DHT22;62540;48.456;-4.456;2023-04-23T02:53:52;13.89;76.23
74178;DHT22;62540;48.456;-4.456;2023-04-23T02:56:18;13.86;76.12
74178;DHT22;62540;48.456;-4.456;2023-04-23T02:58:44;13.90;76.10
74178;DHT22;62540;48.456;-4.456;2023-04-23T03:01:09;13.89;76.09
74178;DHT22;62540;48.456;-4.456;2023-04-23T03:03:35;13.89;75.93
74178;DHT22;62540;48.456;-4.456;2023-04-23T03:06:01;13.88;76.03
74178;DHT22;62540;48.456;-4.456;2023-04-23T03:08:27;13.85;76.19
74178;DHT22;62540;48.456;-4.456;2023-04-23T03:10:52;13.86;76.00
74178;DHT22;62540;48.456;-4.456;2023-04-23T03:13:18;13.90;75.86
74178;DHT22;62540;48.456;-4.456;2023-04-23T03:15:43;13.92;76.03
74178;DHT22;62540;48.456;-4.456;2023-04-23T03:18:08;13.86;76.27
74178;DHT22;62540;48.456;-4.456;2023-04-23T03:20:34;13.86;76.46
74178;DHT22;62540;48.456;-4.456;2023-04-23T03:23:00;13.83;76.69
74178;DHT22;62540;48.456;-4.456;2023-04-23T03:25:26;13.85;76.34
74178;DHT22;62540;48.456;-4.456;2023-04-23T03:27:52;13.89;76.31
74178;DHT22;62540;48.456;-4.456;2023-04-23T03:30:17;13.92;76.22
74178;DHT22;62540;48.456;-4.456;2023-04-23T03:32:43;13.90;76.19
74178;DHT22;62540;48.456;-4.456;2023-04-23T03:35:08;13.92;76.06
74178;DHT22;62540;48.456;-4.456;2023-04-23T03:37:34;13.94;76.03
74178;DHT22;62540;48.456;-4.456;2023-04-23T03:39:59;13.92;76.39
74178;DHT22;62540;48.456;-4.456;2023-04-23T03:42:27;13.92;76.26
74178;DHT22;62540;48.456;-4.456;2023-04-23T03:44:53;13.98;76.25
74178;DHT22;62540;48.456;-4.456;2023-04-23T03:47:18;13.94;76.40
74178;DHT22;62540;48.456;-4.456;2023-04-23T03:49:44;13.98;76.25
74178;DHT22;62540;48.456;-4.456;2023-04-23T03:52:09;14.04;76.07
74178;DHT22;62540;48.456;-4.456;2023-04-23T03:54:34;14.06;76.20
74178;DHT22;62540;48.456;-4.456;2023-04-23T03:57:00;14.05;76.07
74178;DHT22;62540;48.456;-4.456;2023-04-23T03:59:25;14.09;76.00
74178;DHT22;62540;48.456;-4.456;2023-04-23T04:01:51;14.12;76.07
74178;DHT22;62540;48.456;-4.456;2023-04-23T04:04:16;14.16;75.91
74178;DHT22;62540;48.456;-4.456;2023-04-23T04:06:42;14.16;75.99
74178;DHT22;62540;48.456;-4.456;2023-04-23T04:09:07;14.20;75.84
74178;DHT22;62540;48.456;-4.456;2023-04-23T04:11:33;14.20;75.79
74178;DHT22;62540;48.456;-4.456;2023-04-23T04:13:59;14.22;75.70
74178;DHT22;62540;48.456;-4.456;2023-04-23T04:16:24;14.23;75.67
74178;DHT22;62540;48.456;-4.456;2023-04-23T04:18:49;14.20;75.59
74178;DHT22;62540;48.456;-4.456;2023-04-23T04:21:15;14.25;75.49
74178;DHT22;62540;48.456;-4.456;2023-04-23T04:23:42;14.23;75.56
74178;DHT22;62540;48.456;-4.456;2023-04-23T04:26:07;14.25;75.56
74178;DHT22;62540;48.456;-4.456;2023-04-23T04:28:33;14.22;75.67
74178;DHT22;62540;48.456;-4.456;2023-04-23T04:31:01;14.25;75.52
74178;DHT22;62540;48.456;-4.456;2023-04-23T04:33:26;14.26;75.52
74178;DHT22;62540;48.456;-4.456;2023-04-23T04:35:53;14.27;75.41
74178;DHT22;62540;48.456;-4.456;2023-04-23T04:38:18;14.29;75.35
74178;DHT22;62540;48.456;-4.456;2023-04-23T04:40:45;14.29;75.53
74178;DHT22;62540;48.456;-4.456;2023-04-23T04:43:13;14.29;75.52
74178;DHT22;62540;48.456;-4.456;2023-04-23T04:45:40;14.36;75.46
74178;DHT22;62540;48.456;-4.456;2023-04-23T04:48:06;14.37;75.35
74178;DHT22;62540;48.456;-4.456;2023-04-23T04:50:32;14.37;75.48
74178;DHT22;62540;48.456;-4.456;2023-04-23T04:52:57;14.33;75.58
74178;DHT22;62540;48.456;-4.456;2023-04-23T04:55:23;14.34;75.45
74178;DHT22;62540;48.456;-4.456;2023-04-23T04:57:48;14.34;75.14
74178;DHT22;62540;48.456;-4.456;2023-04-23T05:00:32;14.40;74.85
74178;DHT22;62540;48.456;-4.456;2023-04-23T05:02:58;14.40;74.54
74178;DHT22;62540;48.456;-4.456;2023-04-23T05:05:25;14.43;74.52
74178;DHT22;62540;48.456;-4.456;2023-04-23T05:07:51;14.34;74.21
74178;DHT22;62540;48.456;-4.456;2023-04-23T05:10:19;14.36;74.09
74178;DHT22;62540;48.456;-4.456;2023-04-23T05:12:44;14.29;74.01
74178;DHT22;62540;48.456;-4.456;2023-04-23T05:15:11;14.32;74.04
74178;DHT22;62540;48.456;-4.456;2023-04-23T05:17:40;14.32;73.89
74178;DHT22;62540;48.456;-4.456;2023-04-23T05:20:07;14.30;73.51
74178;DHT22;62540;48.456;-4.456;2023-04-23T05:22:39;14.19;72.90
74178;DHT22;62540;48.456;-4.456;2023-04-23T05:25:06;14.10;73.18
74178;DHT22;62540;48.456;-4.456;2023-04-23T05:27:32;14.08;73.62
74178;DHT22;62540;48.456;-4.456;2023-04-23T05:29:58;14.06;73.74
74178;DHT22;62540;48.456;-4.456;2023-04-23T05:32:24;14.09;73.55
74178;DHT22;62540;48.456;-4.456;2023-04-23T05:34:50;14.04;73.64
74178;DHT22;62540;48.456;-4.456;2023-04-23T05:37:15;14.02;73.48
74178;DHT22;62540;48.456;-4.456;2023-04-23T05:39:41;14.01;73.76
74178;DHT22;62540;48.456;-4.456;2023-04-23T05:42:06;13.98;73.96
74178;DHT22;62540;48.456;-4.456;2023-04-23T05:44:31;13.99;73.97
74178;DHT22;62540;48.456;-4.456;2023-04-23T05:46:57;14.01;73.99
74178;DHT22;62540;48.456;-4.456;2023-04-23T05:49:22;13.99;73.97
74178;DHT22;62540;48.456;-4.456;2023-04-23T05:51:47;14.01;74.10
74178;DHT22;62540;48.456;-4.456;2023-04-23T05:54:13;14.02;74.02
74178;DHT22;62540;48.456;-4.456;2023-04-23T05:56:39;14.01;74.22
74178;DHT22;62540;48.456;-4.456;2023-04-23T05:59:04;14.01;74.25
74178;DHT22;62540;48.456;-4.456;2023-04-23T06:01:30;14.02;74.20
74178;DHT22;62540;48.456;-4.456;2023-04-23T06:03:56;14.05;74.37
74178;DHT22;62540;48.456;-4.456;2023-04-23T06:06:21;14.06;74.46
74178;DHT22;62540;48.456;-4.456;2023-04-23T06:08:46;14.13;74.40
74178;DHT22;62540;48.456;-4.456;2023-04-23T06:11:12;14.18;74.20
74178;DHT22;62540;48.456;-4.456;2023-04-23T06:13:37;14.18;74.25
74178;DHT22;62540;48.456;-4.456;2023-04-23T06:16:08;14.20;74.27
74178;DHT22;62540;48.456;-4.456;2023-04-23T06:18:34;14.22;74.31
74178;DHT22;62540;48.456;-4.456;2023-04-23T06:21:00;14.23;74.43
74178;DHT22;62540;48.456;-4.456;2023-04-23T06:23:31;14.30;74.33
74178;DHT22;62540;48.456;-4.456;2023-04-23T06:25:56;14.30;74.42
74178;DHT22;62540;48.456;-4.456;2023-04-23T06:28:22;14.30;74.25
74178;DHT22;62540;48.456;-4.456;2023-04-23T06:30:47;14.36;74.38
74178;DHT22;62540;48.456;-4.456;2023-04-23T06:33:12;14.37;74.32
74178;DHT22;62540;48.456;-4.456;2023-04-23T06:35:38;14.41;74.22
74178;DHT22;62540;48.456;-4.456;2023-04-23T06:38:03;14.44;74.32
74178;DHT22;62540;48.456;-4.456;2023-04-23T06:40:29;14.43;74.38
74178;DHT22;62540;48.456;-4.456;2023-04-23T06:42:54;14.50;74.23
74178;DHT22;62540;48.456;-4.456;2023-04-23T06:45:20;14.56;74.11
74178;DHT22;62540;48.456;-4.456;2023-04-23T06:47:45;14.59;74.23
74178;DHT22;62540;48.456;-4.456;2023-04-23T06:50:13;14.63;74.10
74178;DHT22;62540;48.456;-4.456;2023-04-23T06:52:38;14.68;74.10
74178;DHT22;62540;48.456;-4.456;2023-04-23T06:55:04;14.71;74.24
74178;DHT22;62540;48.456;-4.456;2023-04-23T06:57:30;14.84;74.47
74178;DHT22;62540;48.456;-4.456;2023-04-23T06:59:55;14.98;74.07
74178;DHT22;62540;48.456;-4.456;2023-04-23T07:02:21;14.97;73.89
74178;DHT22;62540;48.456;-4.456;2023-04-23T07:04:46;14.94;73.78
74178;DHT22;62540;48.456;-4.456;2023-04-23T07:07:11;14.91;73.88
74178;DHT22;62540;48.456;-4.456;2023-04-23T07:09:37;14.85;73.90
74178;DHT22;62540;48.456;-4.456;2023-04-23T07:12:02;14.75;74.12
74178;DHT22;62540;48.456;-4.456;2023-04-23T07:14:28;14.71;74.20
74178;DHT22;62540;48.456;-4.456;2023-04-23T07:16:53;14.70;74.30
74178;DHT22;62540;48.456;-4.456;2023-04-23T07:19:19;14.67;74.47
74178;DHT22;62540;48.456;-4.456;2023-04-23T07:21:44;14.60;74.24
74178;DHT22;62540;48.456;-4.456;2023-04-23T07:24:10;14.57;74.26
74178;DHT22;62540;48.456;-4.456;2023-04-23T07:26:35;14.48;73.68
74178;DHT22;62540;48.456;-4.456;2023-04-23T07:29:02;14.53;73.81
74178;DHT22;62540;48.456;-4.456;2023-04-23T07:31:28;14.53;73.68
74178;DHT22;62540;48.456;-4.456;2023-04-23T07:33:54;14.51;73.11
74178;DHT22;62540;48.456;-4.456;2023-04-23T07:36:20;14.46;73.48
74178;DHT22;62540;48.456;-4.456;2023-04-23T07:38:46;14.34;73.71
74178;DHT22;62540;48.456;-4.456;2023-04-23T07:41:11;14.25;73.59
74178;DHT22;62540;48.456;-4.456;2023-04-23T07:43:37;14.15;73.46
74178;DHT22;62540;48.456;-4.456;2023-04-23T07:46:03;13.99;73.11
74178;DHT22;62540;48.456;-4.456;2023-04-23T07:48:29;13.97;72.93
74178;DHT22;62540;48.456;-4.456;2023-04-23T07:50:55;13.89;72.95
74178;DHT22;62540;48.456;-4.456;2023-04-23T07:53:21;13.83;73.29
74178;DHT22;62540;48.456;-4.456;2023-04-23T07:55:47;13.83;72.81
74178;DHT22;62540;48.456;-4.456;2023-04-23T07:58:12;13.81;72.96
74178;DHT22;62540;48.456;-4.456;2023-04-23T08:00:37;13.82;73.14
74178;DHT22;62540;48.456;-4.456;2023-04-23T08:03:03;13.77;73.12
74178;DHT22;62540;48.456;-4.456;2023-04-23T08:05:28;13.72;73.59
74178;DHT22;62540;48.456;-4.456;2023-04-23T08:07:54;13.69;73.33
74178;DHT22;62540;48.456;-4.456;2023-04-23T08:10:19;13.69;73.80
74178;DHT22;62540;48.456;-4.456;2023-04-23T08:12:44;13.67;73.98
74178;DHT22;62540;48.456;-4.456;2023-04-23T08:15:10;13.69;73.88
74178;DHT22;62540;48.456;-4.456;2023-04-23T08:17:36;13.74;74.08
74178;DHT22;62540;48.456;-4.456;2023-04-23T08:20:03;13.81;74.12
74178;DHT22;62540;48.456;-4.456;2023-04-23T08:22:31;13.85;74.09
74178;DHT22;62540;48.456;-4.456;2023-04-23T08:24:56;13.88;73.93
74178;DHT22;62540;48.456;-4.456;2023-04-23T08:27:21;13.85;73.60
74178;DHT22;62540;48.456;-4.456;2023-04-23T08:29:47;13.77;73.50
74178;DHT22;62540;48.456;-4.456;2023-04-23T08:32:12;13.78;73.13
74178;DHT22;62540;48.456;-4.456;2023-04-23T08:34:37;13.82;73.83
74178;DHT22;62540;48.456;-4.456;2023-04-23T08:37:03;14.01;73.92
74178;DHT22;62540;48.456;-4.456;2023-04-23T08:39:29;14.36;74.15
74178;DHT22;62540;48.456;-4.456;2023-04-23T08:42:04;14.83;73.01
74178;DHT22;62540;48.456;-4.456;2023-04-23T08:44:33;15.14;72.54
74178;DHT22;62540;48.456;-4.456;2023-04-23T08:47:03;15.31;69.85
74178;DHT22;62540;48.456;-4.456;2023-04-23T08:49:40;15.57;69.58
74178;DHT22;62540;48.456;-4.456;2023-04-23T08:52:14;15.73;69.12
74178;DHT22;62540;48.456;-4.456;2023-04-23T08:54:45;15.94;68.71
74178;DHT22;62540;48.456;-4.456;2023-04-23T08:57:10;16.12;68.16
74178;DHT22;62540;48.456;-4.456;2023-04-23T08:59:38;16.18;67.78
74178;DHT22;62540;48.456;-4.456;2023-04-23T09:02:04;16.22;67.87
74178;DHT22;62540;48.456;-4.456;2023-04-23T09:04:34;16.28;67.35
74178;DHT22;62540;48.456;-4.456;2023-04-23T09:07:00;16.32;67.38
74178;DHT22;62540;48.456;-4.456;2023-04-23T09:09:27;16.31;67.37
74178;DHT22;62540;48.456;-4.456;2023-04-23T09:11:54;16.41;67.37
74178;DHT22;62540;48.456;-4.456;2023-04-23T09:14:24;16.55;65.54
74178;DHT22;62540;48.456;-4.456;2023-04-23T09:16:51;16.72;65.60
74178;DHT22;62540;48.456;-4.456;2023-04-23T09:19:17;16.96;66.34
74178;DHT22;62540;48.456;-4.456;2023-04-23T09:21:44;17.00;65.22
74178;DHT22;62540;48.456;-4.456;2023-04-23T09:24:11;17.00;65.01
74178;DHT22;62540;48.456;-4.456;2023-04-23T09:26:47;17.06;65.96
74178;DHT22;62540;48.456;-4.456;2023-04-23T09:29:17;17.03;63.05
74178;DHT22;62540;48.456;-4.456;2023-04-23T09:31:48;17.04;63.81
74178;DHT22;62540;48.456;-4.456;2023-04-23T09:34:21;17.49;64.51
74178;DHT22;62540;48.456;-4.456;2023-04-23T09:36:49;17.75;60.27
74178;DHT22;62540;48.456;-4.456;2023-04-23T09:39:20;17.68;60.35
74178;DHT22;62540;48.456;-4.456;2023-04-23T09:41:46;17.85;61.19
74178;DHT22;62540;48.456;-4.456;2023-04-23T09:44:17;18.25;61.91
74178;DHT22;62540;48.456;-4.456;2023-04-23T09:46:43;18.67;60.06
74178;DHT22;62540;48.456;-4.456;2023-04-23T09:49:10;19.23;59.55
74178;DHT22;62540;48.456;-4.456;2023-04-23T09:51:38;19.94;58.53
74178;DHT22;62540;48.456;-4.456;2023-04-23T09:54:19;20.43;54.69
74178;DHT22;62540;48.456;-4.456;2023-04-23T09:56:53;20.10;52.56
74178;DHT22;62540;48.456;-4.456;2023-04-23T09:59:23;19.67;53.08
74178;DHT22;62540;48.456;-4.456;2023-04-23T10:01:49;19.84;53.93
74178;DHT22;62540;48.456;-4.456;2023-04-23T10:04:23;20.29;52.46
74178;DHT22;62540;48.456;-4.456;2023-04-23T10:06:57;20.31;52.21
74178;DHT22;62540;48.456;-4.456;2023-04-23T10:09:24;19.97;51.07
74178;DHT22;62540;48.456;-4.456;2023-04-23T10:11:57;20.00;52.52
74178;DHT22;62540;48.456;-4.456;2023-04-23T10:14:25;19.90;51.01
74178;DHT22;62540;48.456;-4.456;2023-04-23T10:16:52;19.83;51.87
74178;DHT22;62540;48.456;-4.456;2023-04-23T10:19:22;20.20;51.51
74178;DHT22;62540;48.456;-4.456;2023-04-23T10:21:59;20.60;49.74
74178;DHT22;62540;48.456;-4.456;2023-04-23T10:24:31;20.90;50.99
74178;DHT22;62540;48.456;-4.456;2023-04-23T10:26:58;21.11;50.16
74178;DHT22;62540;48.456;-4.456;2023-04-23T10:29:32;21.18;48.40
74178;DHT22;62540;48.456;-4.456;2023-04-23T10:31:59;21.23;50.14
74178;DHT22;62540;48.456;-4.456;2023-04-23T10:34:26;21.39;50.59
74178;DHT22;62540;48.456;-4.456;2023-04-23T10:36:53;21.20;46.20
74178;DHT22;62540;48.456;-4.456;2023-04-23T10:39:23;21.11;50.55
74178;DHT22;62540;48.456;-4.456;2023-04-23T10:41:50;21.10;49.54
74178;DHT22;62540;48.456;-4.456;2023-04-23T10:44:19;20.96;47.82
74178;DHT22;62540;48.456;-4.456;2023-04-23T10:46:57;20.60;46.64
74178;DHT22;62540;48.456;-4.456;2023-04-23T10:49:23;20.46;49.39
74178;DHT22;62540;48.456;-4.456;2023-04-23T10:52:12;20.38;49.44
74178;DHT22;62540;48.456;-4.456;2023-04-23T10:54:40;20.29;49.45
74178;DHT22;62540;48.456;-4.456;2023-04-23T10:57:07;20.21;49.44
74178;DHT22;62540;48.456;-4.456;2023-04-23T10:59:34;20.12;49.50
74178;DHT22;62540;48.456;-4.456;2023-04-23T11:02:11;19.91;49.62
74178;DHT22;62540;48.456;-4.456;2023-04-23T11:04:53;19.63;50.00
74178;DHT22;62540;48.456;-4.456;2023-04-23T11:07:19;19.53;50.39
74178;DHT22;62540;48.456;-4.456;2023-04-23T11:09:45;19.37;50.09
74178;DHT22;62540;48.456;-4.456;2023-04-23T11:14:50;18.98;50.60
74178;DHT22;62540;48.456;-4.456;2023-04-23T11:17:21;18.87;50.52
74178;DHT22;62540;48.456;-4.456;2023-04-23T11:20:06;18.68;50.84
74178;DHT22;62540;48.456;-4.456;2023-04-23T11:25:06;18.54;51.98
74178;DHT22;62540;48.456;-4.456;2023-04-23T11:27:33;18.44;52.52
74178;DHT22;62540;48.456;-4.456;2023-04-23T11:29:58;18.44;53.08
74178;DHT22;62540;48.456;-4.456;2023-04-23T11:32:26;18.44;52.34
74178;DHT22;62540;48.456;-4.456;2023-04-23T11:34:52;18.54;53.20
74178;DHT22;62540;48.456;-4.456;2023-04-23T11:37:18;18.56;53.17
74178;DHT22;62540;48.456;-4.456;2023-04-23T11:39:44;18.48;51.62
74178;DHT22;62540;48.456;-4.456;2023-04-23T11:42:12;18.51;53.61
74178;DHT22;62540;48.456;-4.456;2023-04-23T11:44:39;18.63;53.06
74178;DHT22;62540;48.456;-4.456;2023-04-23T11:47:10;18.69;53.13
74178;DHT22;62540;48.456;-4.456;2023-04-23T11:49:36;18.77;52.74
74178;DHT22;62540;48.456;-4.456;2023-04-23T11:52:05;18.74;52.71
74178;DHT22;62540;48.456;-4.456;2023-04-23T11:54:30;18.72;52.11
74178;DHT22;62540;48.456;-4.456;2023-04-23T11:56:56;18.69;51.97
74178;DHT22;62540;48.456;-4.456;2023-04-23T11:59:23;18.50;51.60
74178;DHT22;62540;48.456;-4.456;2023-04-23T12:01:52;18.22;52.14
74178;DHT22;62540;48.456;-4.456;2023-04-23T12:04:20;18.02;53.29
74178;DHT22;62540;48.456;-4.456;2023-04-23T12:06:47;17.90;54.05
74178;DHT22;62540;48.456;-4.456;2023-04-23T12:09:14;17.83;54.38
74178;DHT22;62540;48.456;-4.456;2023-04-23T12:11:41;17.95;55.05
74178;DHT22;62540;48.456;-4.456;2023-04-23T12:14:08;17.96;53.55
74178;DHT22;62540;48.456;-4.456;2023-04-23T12:16:41;18.00;54.41
74178;DHT22;62540;48.456;-4.456;2023-04-23T12:19:14;18.09;54.30
74178;DHT22;62540;48.456;-4.456;2023-04-23T12:21:56;18.19;53.39
74178;DHT22;62540;48.456;-4.456;2023-04-23T12:24:24;18.25;53.90
74178;DHT22;62540;48.456;-4.456;2023-04-23T12:26:55;18.29;53.79
74178;DHT22;62540;48.456;-4.456;2023-04-23T12:29:23;18.34;54.05
74178;DHT22;62540;48.456;-4.456;2023-04-23T12:31:50;18.44;54.79
74178;DHT22;62540;48.456;-4.456;2023-04-23T12:34:17;18.61;54.87
74178;DHT22;62540;48.456;-4.456;2023-04-23T12:36:48;18.85;54.12
74178;DHT22;62540;48.456;-4.456;2023-04-23T12:39:28;19.08;54.33
74178;DHT22;62540;48.456;-4.456;2023-04-23T12:42:05;19.12;52.98
74178;DHT22;62540;48.456;-4.456;2023-04-23T12:44:35;18.98;53.34
74178;DHT22;62540;48.456;-4.456;2023-04-23T12:47:05;18.96;53.87
74178;DHT22;62540;48.456;-4.456;2023-04-23T12:49:32;18.99;52.93
74178;DHT22;62540;48.456;-4.456;2023-04-23T12:51:59;18.94;53.65
74178;DHT22;62540;48.456;-4.456;2023-04-23T12:54:31;18.94;54.22
74178;DHT22;62540;48.456;-4.456;2023-04-23T12:56:58;18.96;53.54
74178;DHT22;62540;48.456;-4.456;2023-04-23T12:59:25;18.89;54.34
74178;DHT22;62540;48.456;-4.456;2023-04-23T13:01:50;18.77;53.48
74178;DHT22;62540;48.456;-4.456;2023-04-23T13:04:16;18.61;53.59
74178;DHT22;62540;48.456;-4.456;2023-04-23T13:06:42;18.22;52.95
74178;DHT22;62540;48.456;-4.456;2023-04-23T13:09:08;18.12;54.17
74178;DHT22;62540;48.456;-4.456;2023-04-23T13:11:37;17.99;54.93
74178;DHT22;62540;48.456;-4.456;2023-04-23T13:14:04;18.03;55.03
74178;DHT22;62540;48.456;-4.456;2023-04-23T13:16:29;18.09;55.21
74178;DHT22;62540;48.456;-4.456;2023-04-23T13:18:55;18.17;54.87
74178;DHT22;62540;48.456;-4.456;2023-04-23T13:21:20;18.19;54.22
74178;DHT22;62540;48.456;-4.456;2023-04-23T13:23:46;18.32;54.45
74178;DHT22;62540;48.456;-4.456;2023-04-23T13:26:12;18.23;55.01
74178;DHT22;62540;48.456;-4.456;2023-04-23T13:28:38;18.27;54.53
74178;DHT22;62540;48.456;-4.456;2023-04-23T13:31:03;18.37;55.30
74178;DHT22;62540;48.456;-4.456;2023-04-23T13:33:29;18.38;54.75
74178;DHT22;62540;48.456;-4.456;2023-04-23T13:35:56;18.27;54.45
74178;DHT22;62540;48.456;-4.456;2023-04-23T13:38:23;18.22;55.31
74178;DHT22;62540;48.456;-4.456;2023-04-23T13:40:49;18.26;55.48
74178;DHT22;62540;48.456;-4.456;2023-04-23T13:43:14;18.43;56.06
74178;DHT22;62540;48.456;-4.456;2023-04-23T13:45:40;18.46;55.14
74178;DHT22;62540;48.456;-4.456;2023-04-23T13:48:05;18.36;55.01
74178;DHT22;62540;48.456;-4.456;2023-04-23T13:50:32;18.26;55.92
74178;DHT22;62540;48.456;-4.456;2023-04-23T13:52:58;17.98;55.55
74178;DHT22;62540;48.456;-4.456;2023-04-23T13:55:23;17.82;55.92
74178;DHT22;62540;48.456;-4.456;2023-04-23T13:57:49;17.74;56.76
74178;DHT22;62540;48.456;-4.456;2023-04-23T14:00:14;17.75;56.16
74178;DHT22;62540;48.456;-4.456;2023-04-23T14:02:40;17.65;56.07
74178;DHT22;62540;48.456;-4.456;2023-04-23T14:05:05;17.72;56.35
74178;DHT22;62540;48.456;-4.456;2023-04-23T14:07:33;17.74;55.37
74178;DHT22;62540;48.456;-4.456;2023-04-23T14:09:58;17.68;54.69
74178;DHT22;62540;48.456;-4.456;2023-04-23T14:12:25;17.51;54.20
74178;DHT22;62540;48.456;-4.456;2023-04-23T14:14:53;17.44;53.46
74178;DHT22;62540;48.456;-4.456;2023-04-23T14:17:18;17.30;54.58
74178;DHT22;62540;48.456;-4.456;2023-04-23T14:19:44;17.30;55.48
74178;DHT22;62540;48.456;-4.456;2023-04-23T14:22:10;17.28;54.58
74178;DHT22;62540;48.456;-4.456;2023-04-23T14:24:43;17.24;54.20
74178;DHT22;62540;48.456;-4.456;2023-04-23T14:27:09;17.06;53.66
74178;DHT22;62540;48.456;-4.456;2023-04-23T14:29:49;17.04;54.41
74178;DHT22;62540;48.456;-4.456;2023-04-23T14:32:15;17.04;53.12
74178;DHT22;62540;48.456;-4.456;2023-04-23T14:34:40;17.07;54.43
74178;DHT22;62540;48.456;-4.456;2023-04-23T14:37:06;16.99;53.53
74178;DHT22;62540;48.456;-4.456;2023-04-23T14:39:32;16.94;54.17
74178;DHT22;62540;48.456;-4.456;2023-04-23T14:41:57;16.96;55.20
74178;DHT22;62540;48.456;-4.456;2023-04-23T14:44:23;17.11;54.89
74178;DHT22;62540;48.456;-4.456;2023-04-23T14:46:50;17.13;53.19
74178;DHT22;62540;48.456;-4.456;2023-04-23T14:49:17;17.17;53.52
74178;DHT22;62540;48.456;-4.456;2023-04-23T14:51:43;17.21;54.01
74178;DHT22;62540;48.456;-4.456;2023-04-23T14:54:09;17.32;54.24
74178;DHT22;62540;48.456;-4.456;2023-04-23T14:56:34;17.38;54.20
74178;DHT22;62540;48.456;-4.456;2023-04-23T14:59:01;17.45;54.34
74178;DHT22;62540;48.456;-4.456;2023-04-23T15:01:28;17.54;54.05
74178;DHT22;62540;48.456;-4.456;2023-04-23T15:03:53;17.64;54.33
74178;DHT22;62540;48.456;-4.456;2023-04-23T15:06:19;17.72;53.99
74178;DHT22;62540;48.456;-4.456;2023-04-23T15:08:44;17.81;52.58
74178;DHT22;62540;48.456;-4.456;2023-04-23T15:11:11;17.88;52.44
74178;DHT22;62540;48.456;-4.456;2023-04-23T15:16:30;18.03;51.86
74178;DHT22;62540;48.456;-4.456;2023-04-23T15:18:59;18.07;52.18
74178;DHT22;62540;48.456;-4.456;2023-04-23T15:21:24;18.06;51.76